ADDS METAR Data INFO
IDs: Format: Raw Decoded Include TAF

Data at: 0257 UTC 21 Jan 2018

K3AU 210235Z AUTO 13005KT 10SM CLR 07/04 A2976 RMK AO2
K3AU 210215Z AUTO 13005KT 10SM CLR 07/04 A2977 RMK AO2
K3AU 210155Z AUTO 13005KT 10SM CLR 07/04 A2977 RMK AO2
K3AU 210135Z AUTO 13005KT 10SM CLR 08/05 A2977 RMK AO2
K3AU 210115Z AUTO 13005KT 10SM CLR 09/05 A2977 RMK AO2
K3AU 210055Z AUTO 15003KT 10SM CLR 09/05 A2978 RMK AO2
K3AU 210035Z AUTO 16005KT 10SM CLR 11/05 A2978 RMK AO2
K3AU 210015Z AUTO 16005KT 10SM CLR 11/05 A2977 RMK AO2
K3AU 202355Z AUTO 16006KT 10SM CLR 12/06 A2976 RMK AO2
K3AU 202335Z AUTO 17007KT 10SM CLR 12/06 A2976 RMK AO2
K3AU 202315Z AUTO 16010KT 10SM CLR 14/06 A2976 RMK AO2
K3AU 202255Z AUTO 16012KT 10SM CLR 15/06 A2976 RMK AO2
K3AU 202235Z AUTO 17009G17KT 10SM CLR 15/06 A2976 RMK AO2
K3AU 202215Z AUTO 17013G18KT 10SM CLR 16/06 A2976 RMK AO2
K3AU 202155Z AUTO 17011G17KT 10SM CLR 16/06 A2976 RMK AO2
K3AU 202135Z AUTO 17015G21KT 10SM CLR 16/06 A2975 RMK AO2
K3AU 202115Z AUTO 17015KT 10SM CLR 15/06 A2976 RMK AO2
K3AU 202055Z AUTO 17012G19KT 10SM CLR 15/06 A2976 RMK AO2
K3AU 202035Z AUTO 16016KT 10SM CLR 15/07 A2976 RMK AO2
K3AU 202015Z AUTO 17011KT 10SM CLR 15/06 A2976 RMK AO2
K3AU 201955Z AUTO 19013KT 10SM CLR 15/06 A2976 RMK AO2
K3AU 201935Z AUTO 18013G21KT 10SM CLR 13/06 A2977 RMK AO2
K3AU 201915Z AUTO 17013G18KT 10SM SCT025 13/07 A2978 RMK AO2
K3AU 201855Z AUTO 18012G20KT 10SM BKN023 12/07 A2979 RMK AO2
K3AU 201835Z AUTO 20012G19KT 10SM OVC023 12/06 A2980 RMK AO2
K3AU 201815Z AUTO 18017G20KT 10SM OVC021 11/06 A2981 RMK AO2
K3AU 201755Z AUTO 20016G21KT 10SM OVC021 11/06 A2982 RMK AO2
K3AU 201735Z AUTO 19013G23KT 10SM OVC021 11/06 A2983 RMK AO2
K3AU 201715Z AUTO 19017G22KT 10SM OVC019 11/06 A2984 RMK AO2
K3AU 201655Z AUTO 19013G19KT 10SM OVC017 10/07 A2984 RMK AO2
K3AU 201635Z AUTO 18015G22KT 10SM OVC017 10/07 A2984 RMK AO2
K3AU 201615Z AUTO 18016G20KT 10SM OVC017 10/07 A2984 RMK AO2
K3AU 201555Z AUTO 17013G19KT 10SM OVC017 09/07 A2984 RMK AO2
K3AU 201535Z AUTO 17014KT 10SM OVC017 08/07 A2984 RMK AO2
K3AU 201515Z AUTO 17011G15KT 10SM OVC017 08/07 A2984 RMK AO2
K3AU 201455Z AUTO 17011KT 10SM OVC019 08/07 A2984 RMK AO2
K3AU 201435Z AUTO 17012KT 10SM OVC019 08/07 A2983 RMK AO2
K3AU 201415Z AUTO 17013KT 10SM OVC019 08/07 A2983 RMK AO2
K3AU 201355Z AUTO 17012G16KT 10SM OVC019 08/07 A2983 RMK AO2
K3AU 201335Z AUTO 17010KT 10SM OVC017 08/07 A2983 RMK AO2
K3AU 201315Z AUTO 17011KT 10SM OVC017 08/07 A2983 RMK AO2
K3AU 201255Z AUTO 18009KT 10SM OVC015 08/07 A2983 RMK AO2
K3AU 201235Z AUTO 18009KT 10SM OVC015 08/07 A2982 RMK AO2
K3AU 201215Z AUTO 17011KT 10SM OVC013 08/07 A2981 RMK AO2
K3AU 201155Z AUTO 17009KT 10SM OVC013 08/07 A2981 RMK AO2
K3AU 201135Z AUTO 18011G17KT 10SM OVC013 08/07 A2981 RMK AO2
K3AU 201115Z AUTO 19012G17KT 10SM OVC013 08/07 A2981 RMK AO2
K3AU 201055Z AUTO 19013G17KT 10SM OVC013 08/07 A2981 RMK AO2
K3AU 201035Z AUTO 19012G18KT 10SM OVC011 08/07 A2981 RMK AO2
K3AU 201015Z AUTO 19010G20KT 10SM OVC011 08/07 A2981 RMK AO2
K3AU 200955Z AUTO 18014G23KT 10SM OVC011 08/07 A2981 RMK AO2
K3AU 200935Z AUTO 18014G21KT 10SM OVC009 08/07 A2981 RMK AO2
K3AU 200915Z AUTO 18016G21KT 10SM OVC009 07/06 A2981 RMK AO2
K3AU 200855Z AUTO 18013G19KT 10SM OVC009 07/06 A2982 RMK AO2
K3AU 200835Z AUTO 18014G18KT 10SM OVC009 07/06 A2982 RMK AO2
K3AU 200815Z AUTO 18014G18KT 10SM OVC011 06/05 A2982 RMK AO2
K3AU 200755Z AUTO 17011KT 10SM OVC011 06/04 A2983 RMK AO2
K3AU 200735Z AUTO 18009G14KT 10SM BKN013 05/03 A2983 RMK AO2
K3AU 200715Z AUTO 17009KT 10SM CLR 04/02 A2983 RMK AO2
K3AU 200655Z AUTO 17009KT 10SM CLR 05/02 A2982 RMK AO2
K3AU 200635Z AUTO 17010KT 10SM CLR 05/02 A2982 RMK AO2
K3AU 200615Z AUTO 18009KT 10SM CLR 05/02 A2982 RMK AO2
K3AU 200555Z AUTO 17012G17KT 10SM CLR 05/01 A2982 RMK AO2
K3AU 200535Z AUTO 17011KT 10SM CLR 05/00 A2983 RMK AO2
K3AU 200515Z AUTO 17009KT 10SM CLR 04/00 A2983 RMK AO2
K3AU 200455Z AUTO 17010KT 10SM CLR 05/00 A2983 RMK AO2
K3AU 200435Z AUTO 17011KT 10SM CLR 05/00 A2983 RMK AO2
K3AU 200415Z AUTO 18009KT 10SM CLR 05/M01 A2983 RMK AO2
K3AU 200355Z AUTO 18010KT 10SM CLR 05/M02 A2983 RMK AO2
K3AU 200335Z AUTO 17011KT 10SM CLR 05/M03 A2982 RMK AO2
K3AU 200315Z AUTO 17011KT 10SM CLR 06/M03 A2982 RMK AO2
K3AU 200255Z AUTO 18011KT 10SM CLR 06/M03 A2982 RMK AO2
K3AU 200235Z AUTO 17011KT 10SM CLR 06/M03 A2981 RMK AO2
K3AU 200215Z AUTO 17010KT 10SM CLR 06/M03 A2981 RMK AO2
K3AU 200155Z AUTO 17011KT 10SM CLR 06/M04 A2981 RMK AO2
K3AU 200135Z AUTO 17011KT 10SM CLR 07/M04 A2981 RMK AO2
K3AU 200115Z AUTO 17013KT 10SM CLR 08/M04 A2981 RMK AO2
K3AU 200055Z AUTO 17010KT 10SM CLR 08/M04 A2981 RMK AO2
K3AU 200035Z AUTO 17014KT 10SM CLR 08/M04 A2980 RMK AO2
K3AU 200015Z AUTO 17010KT 10SM CLR 10/M04 A2981 RMK AO2
K3AU 192355Z AUTO 18011KT 10SM CLR 10/M04 A2980 RMK AO2
K3AU 192335Z AUTO 17010KT 10SM CLR 10/M04 A2979 RMK AO2
K3AU 192315Z AUTO 17012G17KT 10SM CLR 11/M05 A2979 RMK AO2
K3AU 192255Z AUTO 18012KT 10SM CLR 12/M05 A2979 RMK AO2
K3AU 192235Z AUTO 19014G19KT 10SM CLR 12/M05 A2979 RMK AO2
K3AU 192215Z AUTO 19012G23KT 10SM CLR 13/M05 A2979 RMK AO2
K3AU 192155Z AUTO 18014G19KT 10SM CLR 13/M05 A2979 RMK AO2
K3AU 192135Z AUTO 19017G22KT 10SM CLR 13/M05 A2979 RMK AO2
K3AU 192115Z AUTO 18014G19KT 10SM CLR 13/M05 A2980 RMK AO2
K3AU 192055Z AUTO 19018G23KT 10SM CLR 12/M05 A2981 RMK AO2
K3AU 192035Z AUTO 19017G26KT 10SM CLR 12/M05 A2981 RMK AO2
K3AU 192015Z AUTO 20016G24KT 10SM CLR 12/M05 A2982 RMK AO2
K3AU 191955Z AUTO 19019G24KT 10SM CLR 12/M05 A2982 RMK AO2
K3AU 191935Z AUTO 19017G24KT 10SM CLR 11/M05 A2983 RMK AO2
K3AU 191915Z AUTO 20016G26KT 10SM CLR 11/M06 A2984 RMK AO2
K3AU 191855Z AUTO 19015G21KT 10SM CLR 11/M05 A2986 RMK AO2
K3AU 191835Z AUTO 18019KT 10SM CLR 09/M05 A2987 RMK AO2
K3AU 191815Z AUTO 19018KT 10SM CLR 08/M06 A2988 RMK AO2
K3AU 191755Z AUTO 18016KT 10SM CLR 07/M06 A2991 RMK AO2
K3AU 191735Z AUTO 19013KT 10SM CLR 07/M06 A2993 RMK AO2
K3AU 191715Z AUTO 18012KT 10SM CLR 06/M06 A2994 RMK AO2
K3AU 191655Z AUTO 19015KT 10SM CLR 05/M06 A2995 RMK AO2
K3AU 191635Z AUTO 20011G18KT 10SM CLR 03/M06 A2996 RMK AO2
K3AU 191615Z AUTO 19011KT 10SM CLR 02/M06 A2996 RMK AO2
K3AU 191555Z AUTO 20011KT 10SM CLR 02/M07 A2996 RMK AO2
K3AU 191535Z AUTO 19012KT 10SM CLR 01/M07 A2996 RMK AO2
K3AU 191515Z AUTO 19015G19KT 10SM CLR 00/M07 A2995 RMK AO2